Time;durP1;ratioP1;P1;durP2;ratioP2;P2;SDS_P1;SDS_P2;PMS_P1;PMS_P2;Temp;Humidity;BMP_temperature;BMP_pressure;BME280_temperature;BME280_humidity;BME280_pressure;Samples;Min_cycle;Max_cycle;Signal;HPM_P1;HPM_P2
2023/09/07 00:02:25;;;;;;;19.07;11.30;;;;;;;;;;775313;181;919027;-61
2023/09/07 00:04:51;;;;;;;16.57;11.30;;;;;;;;;;774319;180;918647;-67
2023/09/07 00:07:16;;;;;;;13.77;10.27;;;;;;;;;;773236;180;919475;-61
2023/09/07 00:09:42;;;;;;;12.50;10.73;;;;;;;;;;773418;180;922182;-67
2023/09/07 00:12:08;;;;;;;13.27;11.07;;;;;;;;;;761988;183;918401;-68
2023/09/07 00:14:34;;;;;;;12.77;10.57;;;;;;;;;;774582;181;921254;-67
2023/09/07 00:17:00;;;;;;;14.87;10.80;;;;;;;;;;775544;180;919106;-67
2023/09/07 00:19:26;;;;;;;15.60;10.63;;;;;;;;;;775078;180;917965;-59
2023/09/07 00:21:51;;;;;;;25.90;11.13;;;;;;;;;;771756;181;918926;-61
2023/09/07 00:24:17;;;;;;;12.10;9.27;;;;;;;;;;773948;180;919176;-63
2023/09/07 00:26:43;;;;;;;14.17;10.10;;;;;;;;;;782589;178;918977;-68
2023/09/07 00:29:09;;;;;;;18.73;11.13;;;;;;;;;;776336;177;918513;-67
2023/09/07 00:31:35;;;;;;;12.57;9.27;;;;;;;;;;777224;178;918224;-62
2023/09/07 00:34:01;;;;;;;19.70;10.90;;;;;;;;;;780789;179;917982;-61
2023/09/07 00:36:26;;;;;;;15.73;12.20;;;;;;;;;;772829;178;925041;-68
2023/09/07 00:38:52;;;;;;;10.87;9.53;;;;;;;;;;771609;178;918620;-61
2023/09/07 00:41:18;;;;;;;14.80;11.37;;;;;;;;;;770035;180;921159;-61
2023/09/07 00:43:44;;;;;;;15.50;12.00;;;;;;;;;;773564;181;918192;-61
2023/09/07 00:46:10;;;;;;;17.17;11.70;;;;;;;;;;771023;181;918319;-61
2023/09/07 00:48:36;;;;;;;15.32;11.43;;;;;;;;;;772136;178;920516;-67
2023/09/07 00:51:02;;;;;;;25.87;12.70;;;;;;;;;;777104;178;817543;-61
2023/09/07 00:53:27;;;;;;;16.53;12.60;;;;;;;;;;773224;177;918582;-61
2023/09/07 00:55:53;;;;;;;14.55;12.02;;;;;;;;;;763162;181;927718;-62
2023/09/07 00:58:19;;;;;;;16.63;13.33;;;;;;;;;;767904;180;817104;-61
2023/09/07 01:00:45;;;;;;;15.32;11.95;;;;;;;;;;771078;179;914153;-67
2023/09/07 01:03:11;;;;;;;18.17;13.13;;;;;;;;;;770482;178;918918;-67
2023/09/07 01:05:41;;;;;;;17.70;12.57;;;;;;;;;;773869;180;836821;-62
2023/09/07 01:08:08;;;;;;;23.03;12.97;;;;;;;;;;770855;181;911372;-61
2023/09/07 01:10:34;;;;;;;21.27;14.03;;;;;;;;;;776990;180;873432;-68
2023/09/07 01:13:00;;;;;;;21.15;13.15;;;;;;;;;;770311;181;907080;-68
2023/09/07 01:15:26;;;;;;;17.60;12.90;;;;;;;;;;775247;182;917410;-68
2023/09/07 01:17:51;;;;;;;16.17;13.63;;;;;;;;;;773915;177;924945;-62
2023/09/07 01:20:18;;;;;;;16.37;11.93;;;;;;;;;;773972;178;915482;-61
2023/09/07 01:22:43;;;;;;;18.50;14.07;;;;;;;;;;779418;179;918300;-61
2023/09/07 01:25:09;;;;;;;17.73;14.10;;;;;;;;;;773992;181;921105;-69
2023/09/07 01:27:35;;;;;;;20.23;14.13;;;;;;;;;;776737;178;920471;-68
2023/09/07 01:30:02;;;;;;;18.57;13.90;;;;;;;;;;774015;179;818812;-69
2023/09/07 01:32:27;;;;;;;21.63;12.77;;;;;;;;;;774509;178;915755;-63
2023/09/07 01:34:52;;;;;;;19.60;15.97;;;;;;;;;;772413;180;823235;-62
2023/09/07 01:37:18;;;;;;;18.80;13.07;;;;;;;;;;775336;176;916195;-62
2023/09/07 01:39:44;;;;;;;17.33;12.95;;;;;;;;;;781537;180;916067;-62
2023/09/07 01:42:10;;;;;;;17.00;12.73;;;;;;;;;;773227;178;920558;-61
2023/09/07 01:44:36;;;;;;;15.20;12.33;;;;;;;;;;774305;177;921016;-61
2023/09/07 01:47:02;;;;;;;17.20;12.53;;;;;;;;;;779345;177;916608;-68
2023/09/07 01:49:27;;;;;;;14.63;11.70;;;;;;;;;;775852;177;917920;-68
2023/09/07 01:51:53;;;;;;;13.43;11.30;;;;;;;;;;771072;180;927916;-68
2023/09/07 01:54:19;;;;;;;15.57;11.60;;;;;;;;;;776841;178;929060;-62
2023/09/07 01:56:45;;;;;;;16.43;12.30;;;;;;;;;;769735;181;918780;-68
2023/09/07 01:59:11;;;;;;;21.07;13.70;;;;;;;;;;773232;180;923574;-69
2023/09/07 02:01:38;;;;;;;14.93;10.97;;;;;;;;;;778975;180;781559;-60
2023/09/07 02:04:03;;;;;;;14.20;10.83;;;;;;;;;;778064;180;918901;-67
2023/09/07 02:06:28;;;;;;;16.43;12.27;;;;;;;;;;775184;177;918820;-69
2023/09/07 02:08:54;;;;;;;21.77;12.10;;;;;;;;;;775690;177;917899;-60
2023/09/07 02:11:20;;;;;;;16.83;13.63;;;;;;;;;;779609;180;816903;-68
2023/09/07 02:13:46;;;;;;;17.23;12.63;;;;;;;;;;774537;177;916338;-61
2023/09/07 02:16:12;;;;;;;15.20;13.33;;;;;;;;;;768727;177;913797;-61
2023/09/07 02:18:39;;;;;;;15.47;12.23;;;;;;;;;;778544;181;919034;-68
2023/09/07 02:21:04;;;;;;;16.23;13.00;;;;;;;;;;766876;181;918161;-61
2023/09/07 02:23:29;;;;;;;16.63;12.73;;;;;;;;;;771454;180;919334;-68
2023/09/07 02:25:55;;;;;;;22.07;12.83;;;;;;;;;;769975;181;919536;-62
2023/09/07 02:28:21;;;;;;;14.47;10.03;;;;;;;;;;777629;181;918938;-68
2023/09/07 02:30:47;;;;;;;18.40;12.73;;;;;;;;;;771932;180;917163;-61
2023/09/07 02:33:13;;;;;;;17.47;12.73;;;;;;;;;;764634;179;920647;-67
2023/09/07 02:35:39;;;;;;;16.70;12.17;;;;;;;;;;769246;181;896693;-61
2023/09/07 02:38:04;;;;;;;16.53;12.87;;;;;;;;;;777216;180;918818;-69
2023/09/07 02:40:30;;;;;;;15.70;13.00;;;;;;;;;;776974;177;918268;-60
2023/09/07 02:42:56;;;;;;;20.07;12.03;;;;;;;;;;779502;180;919141;-61
2023/09/07 02:45:22;;;;;;;16.50;12.90;;;;;;;;;;768758;179;816420;-61
2023/09/07 02:47:50;;;;;;;15.90;12.70;;;;;;;;;;775426;178;918075;-61
2023/09/07 02:50:15;;;;;;;16.07;13.13;;;;;;;;;;779461;179;919339;-67
2023/09/07 02:52:40;;;;;;;19.70;12.87;;;;;;;;;;777572;180;919515;-61
2023/09/07 02:55:06;;;;;;;16.70;12.43;;;;;;;;;;773797;179;902007;-60
2023/09/07 02:57:32;;;;;;;16.03;13.60;;;;;;;;;;775962;179;918548;-62
2023/09/07 02:59:57;;;;;;;16.43;12.77;;;;;;;;;;776785;180;814668;-67
2023/09/07 03:02:23;;;;;;;15.30;11.70;;;;;;;;;;774966;177;912745;-61
2023/09/07 03:04:49;;;;;;;17.07;14.20;;;;;;;;;;767298;180;921015;-67
2023/09/07 03:07:15;;;;;;;18.40;12.93;;;;;;;;;;776694;180;921206;-66
2023/09/07 03:09:41;;;;;;;13.30;11.00;;;;;;;;;;770883;180;920672;-67
2023/09/07 03:12:07;;;;;;;13.33;11.60;;;;;;;;;;775043;178;715123;-67
2023/09/07 03:14:33;;;;;;;16.57;12.23;;;;;;;;;;776206;180;814899;-67
2023/09/07 03:16:58;;;;;;;18.63;12.30;;;;;;;;;;769440;177;917237;-61
2023/09/07 03:19:24;;;;;;;20.60;12.40;;;;;;;;;;763579;181;927259;-61
2023/09/07 03:21:50;;;;;;;20.33;11.53;;;;;;;;;;774445;180;856405;-66
2023/09/07 03:24:16;;;;;;;17.00;12.00;;;;;;;;;;766752;182;813479;-68
2023/09/07 03:26:43;;;;;;;16.20;13.27;;;;;;;;;;772294;181;918841;-68
2023/09/07 03:29:08;;;;;;;21.63;13.27;;;;;;;;;;767732;181;920214;-67
2023/09/07 03:31:34;;;;;;;21.50;13.30;;;;;;;;;;775217;181;715544;-69
2023/09/07 03:33:59;;;;;;;15.10;12.50;;;;;;;;;;768255;179;915914;-68
2023/09/07 03:36:25;;;;;;;18.33;13.97;;;;;;;;;;772224;180;924063;-63
2023/09/07 03:38:51;;;;;;;17.40;12.10;;;;;;;;;;778544;179;919404;-67
2023/09/07 03:41:17;;;;;;;15.90;12.20;;;;;;;;;;772983;178;919709;-67
2023/09/07 03:43:43;;;;;;;16.05;12.77;;;;;;;;;;768964;180;920810;-68
2023/09/07 03:46:09;;;;;;;22.50;12.93;;;;;;;;;;772118;178;918664;-66
2023/09/07 03:48:34;;;;;;;16.13;11.93;;;;;;;;;;771117;182;918465;-68
2023/09/07 03:51:00;;;;;;;22.30;12.80;;;;;;;;;;768937;181;892726;-61
2023/09/07 03:53:26;;;;;;;15.07;11.73;;;;;;;;;;773581;177;878306;-67
2023/09/07 03:55:52;;;;;;;16.60;13.00;;;;;;;;;;775820;180;920010;-67
2023/09/07 03:58:18;;;;;;;18.37;12.03;;;;;;;;;;764667;180;921096;-61
2023/09/07 04:00:44;;;;;;;18.10;14.83;;;;;;;;;;773623;179;854061;-61
2023/09/07 04:03:10;;;;;;;18.53;13.20;;;;;;;;;;774404;179;919362;-67
2023/09/07 04:05:38;;;;;;;16.87;12.73;;;;;;;;;;772067;181;713424;-60
2023/09/07 04:08:03;;;;;;;22.53;14.70;;;;;;;;;;772955;179;919462;-67
2023/09/07 04:10:29;;;;;;;18.95;12.98;;;;;;;;;;781920;178;627512;-66
2023/09/07 04:12:55;;;;;;;19.17;13.70;;;;;;;;;;774534;180;912289;-67
2023/09/07 04:15:21;;;;;;;15.40;12.27;;;;;;;;;;779250;177;637213;-61
2023/09/07 04:17:47;;;;;;;17.00;13.20;;;;;;;;;;781311;178;624331;-66
2023/09/07 04:20:13;;;;;;;17.57;13.30;;;;;;;;;;783266;178;631705;-61
2023/09/07 04:22:38;;;;;;;18.47;12.80;;;;;;;;;;776262;180;632721;-60
2023/09/07 04:25:04;;;;;;;15.67;12.80;;;;;;;;;;771177;180;919304;-61
2023/09/07 04:27:30;;;;;;;16.17;12.57;;;;;;;;;;778586;180;815671;-61
2023/09/07 04:29:56;;;;;;;19.70;13.07;;;;;;;;;;773609;180;810537;-60
2023/09/07 04:32:22;;;;;;;18.03;13.60;;;;;;;;;;771902;180;917272;-67
2023/09/07 04:34:48;;;;;;;21.30;14.17;;;;;;;;;;772962;178;815898;-61
2023/09/07 04:37:14;;;;;;;18.90;14.10;;;;;;;;;;776284;180;779212;-68
2023/09/07 04:39:40;;;;;;;16.43;13.60;;;;;;;;;;776114;180;632220;-68
2023/09/07 04:42:05;;;;;;;16.67;13.60;;;;;;;;;;778037;180;632389;-61
2023/09/07 04:44:31;;;;;;;18.03;13.53;;;;;;;;;;782381;180;638698;-68
2023/09/07 04:46:57;;;;;;;22.40;14.00;;;;;;;;;;778194;180;627463;-61
2023/09/07 04:49:23;;;;;;;19.20;12.37;;;;;;;;;;773993;181;629008;-61
2023/09/07 04:51:49;;;;;;;18.13;13.20;;;;;;;;;;781193;179;620027;-67
2023/09/07 04:54:16;;;;;;;21.63;14.27;;;;;;;;;;778690;180;643136;-67
2023/09/07 04:56:40;;;;;;;17.00;12.43;;;;;;;;;;778671;178;633769;-68
2023/09/07 04:59:06;;;;;;;15.83;12.13;;;;;;;;;;775187;181;622032;-61
2023/09/07 05:01:32;;;;;;;19.67;13.37;;;;;;;;;;773004;180;637311;-69
2023/09/07 05:03:58;;;;;;;16.07;13.90;;;;;;;;;;776970;178;715758;-61
2023/09/07 05:06:26;;;;;;;16.10;12.37;;;;;;;;;;775055;178;915132;-62
2023/09/07 05:08:50;;;;;;;16.73;12.87;;;;;;;;;;769457;180;918429;-62
2023/09/07 05:11:16;;;;;;;14.13;12.43;;;;;;;;;;764080;179;1020614;-69
2023/09/07 05:13:42;;;;;;;16.17;11.20;;;;;;;;;;776230;178;913606;-61
2023/09/07 05:16:08;;;;;;;17.20;12.80;;;;;;;;;;774883;180;924743;-62
2023/09/07 05:18:34;;;;;;;15.33;11.30;;;;;;;;;;772712;179;914564;-62
2023/09/07 05:21:00;;;;;;;17.57;12.33;;;;;;;;;;771288;180;918635;-68
2023/09/07 05:23:26;;;;;;;19.27;12.47;;;;;;;;;;778066;180;918986;-69
2023/09/07 05:25:52;;;;;;;18.57;12.73;;;;;;;;;;773883;181;918664;-68
2023/09/07 05:28:18;;;;;;;16.60;12.77;;;;;;;;;;771962;179;917317;-61
2023/09/07 05:30:44;;;;;;;16.30;12.43;;;;;;;;;;776166;180;922251;-62
2023/09/07 05:33:10;;;;;;;14.60;11.80;;;;;;;;;;763194;180;919482;-61
2023/09/07 05:35:36;;;;;;;17.83;12.83;;;;;;;;;;772224;178;918495;-62
2023/09/07 05:38:01;;;;;;;15.93;13.03;;;;;;;;;;768918;178;812520;-69
2023/09/07 05:40:28;;;;;;;18.30;13.60;;;;;;;;;;779463;180;902200;-69
2023/09/07 05:42:53;;;;;;;16.37;12.43;;;;;;;;;;765807;181;918847;-69
2023/09/07 05:45:19;;;;;;;19.10;13.57;;;;;;;;;;768984;180;917985;-69
2023/09/07 05:47:45;;;;;;;16.57;12.50;;;;;;;;;;779263;180;918289;-69
2023/09/07 05:50:11;;;;;;;17.40;12.87;;;;;;;;;;767492;179;919520;-69
2023/09/07 05:52:36;;;;;;;22.10;12.10;;;;;;;;;;772471;178;918450;-61
2023/09/07 05:55:02;;;;;;;16.30;12.47;;;;;;;;;;780623;180;918822;-62
2023/09/07 05:57:28;;;;;;;24.87;14.20;;;;;;;;;;770596;180;920519;-62
2023/09/07 05:59:54;;;;;;;18.57;12.23;;;;;;;;;;771013;180;919224;-62
2023/09/07 06:02:20;;;;;;;26.00;14.63;;;;;;;;;;772617;181;919189;-62
2023/09/07 06:04:46;;;;;;;16.70;12.70;;;;;;;;;;771973;181;817118;-71
2023/09/07 06:07:12;;;;;;;21.20;13.60;;;;;;;;;;773740;181;918030;-63
2023/09/07 06:09:37;;;;;;;19.53;14.20;;;;;;;;;;771168;181;919507;-63
2023/09/07 06:12:04;;;;;;;19.17;13.50;;;;;;;;;;775040;181;916970;-63
2023/09/07 06:14:29;;;;;;;18.60;13.87;;;;;;;;;;772785;177;868723;-64
2023/09/07 06:16:55;;;;;;;19.53;13.23;;;;;;;;;;772589;178;918882;-64
2023/09/07 06:19:21;;;;;;;20.20;14.80;;;;;;;;;;766413;180;908896;-62
2023/09/07 06:21:47;;;;;;;22.67;14.03;;;;;;;;;;768363;178;912796;-62
2023/09/07 06:24:14;;;;;;;21.00;15.07;;;;;;;;;;775751;178;859375;-70
2023/09/07 06:26:39;;;;;;;25.10;14.83;;;;;;;;;;780797;177;918307;-63
2023/09/07 06:29:04;;;;;;;19.20;14.53;;;;;;;;;;775503;180;921561;-70
2023/09/07 06:31:30;;;;;;;24.58;16.25;;;;;;;;;;768116;177;920141;-63
2023/09/07 06:33:56;;;;;;;18.70;14.70;;;;;;;;;;774307;179;919319;-69
2023/09/07 06:36:22;;;;;;;23.10;16.97;;;;;;;;;;774070;180;918547;-71
2023/09/07 06:38:48;;;;;;;21.80;15.63;;;;;;;;;;767905;177;917762;-63
2023/09/07 06:41:14;;;;;;;31.53;17.20;;;;;;;;;;770410;177;914890;-70
2023/09/07 06:43:40;;;;;;;24.23;16.30;;;;;;;;;;779728;180;909553;-63
2023/09/07 06:46:05;;;;;;;21.77;15.33;;;;;;;;;;772713;180;916673;-64
2023/09/07 06:48:32;;;;;;;24.90;18.27;;;;;;;;;;772857;180;918773;-65
2023/09/07 06:50:57;;;;;;;22.80;15.93;;;;;;;;;;774439;180;919209;-70
2023/09/07 06:53:23;;;;;;;23.97;16.00;;;;;;;;;;767897;180;917673;-64
2023/09/07 06:55:49;;;;;;;21.15;16.30;;;;;;;;;;773350;179;918455;-63
2023/09/07 06:58:15;;;;;;;20.33;15.23;;;;;;;;;;770863;177;919408;-63
2023/09/07 07:00:41;;;;;;;25.70;15.73;;;;;;;;;;753089;186;915364;-62
2023/09/07 07:03:06;;;;;;;20.80;15.40;;;;;;;;;;761746;181;923592;-62
2023/09/07 07:05:33;;;;;;;22.93;15.73;;;;;;;;;;770846;180;918990;-68
2023/09/07 07:07:59;;;;;;;22.13;16.47;;;;;;;;;;774598;181;919169;-70
2023/09/07 07:10:24;;;;;;;26.00;17.10;;;;;;;;;;765513;180;917958;-67
2023/09/07 07:12:50;;;;;;;30.73;17.10;;;;;;;;;;763899;182;910678;-69
2023/09/07 07:15:16;;;;;;;26.67;18.87;;;;;;;;;;779393;181;921805;-63
2023/09/07 07:17:42;;;;;;;20.80;15.70;;;;;;;;;;770540;180;809609;-70
2023/09/07 07:20:08;;;;;;;19.00;14.30;;;;;;;;;;772877;180;917108;-63
2023/09/07 07:22:35;;;;;;;22.83;15.57;;;;;;;;;;779618;180;915233;-69
2023/09/07 07:25:05;;;;;;;26.70;17.00;;;;;;;;;;774529;178;918288;-65
2023/09/07 07:27:25;;;;;;;24.07;15.57;;;;;;;;;;772646;178;917188;-70
2023/09/07 07:29:51;;;;;;;17.57;14.20;;;;;;;;;;773331;181;916018;-63
2023/09/07 07:32:17;;;;;;;22.30;15.70;;;;;;;;;;778422;181;921597;-68
2023/09/07 07:34:43;;;;;;;27.13;16.40;;;;;;;;;;773724;178;817348;-63
2023/09/07 07:37:09;;;;;;;20.83;16.07;;;;;;;;;;773384;179;919465;-62
2023/09/07 07:39:35;;;;;;;21.33;14.40;;;;;;;;;;774202;180;919497;-62
2023/09/07 07:42:01;;;;;;;25.53;15.73;;;;;;;;;;775761;180;918658;-66
2023/09/07 07:44:26;;;;;;;20.17;15.80;;;;;;;;;;774815;180;917118;-61
2023/09/07 07:46:52;;;;;;;18.53;11.67;;;;;;;;;;781109;181;817076;-68
2023/09/07 07:49:18;;;;;;;26.33;13.87;;;;;;;;;;777124;179;820630;-66
2023/09/07 07:51:44;;;;;;;19.52;13.75;;;;;;;;;;776526;177;919328;-66
2023/09/07 07:54:10;;;;;;;20.60;14.32;;;;;;;;;;773584;180;904316;-63
2023/09/07 07:56:36;;;;;;;21.33;14.37;;;;;;;;;;764018;181;921652;-62
2023/09/07 07:59:03;;;;;;;18.97;12.73;;;;;;;;;;765940;181;857630;-61
2023/09/07 08:01:29;;;;;;;15.27;12.10;;;;;;;;;;772579;179;916853;-67
2023/09/07 08:03:54;;;;;;;17.00;12.23;;;;;;;;;;779922;180;919047;-62
2023/09/07 08:06:20;;;;;;;17.80;12.80;;;;;;;;;;777364;179;919064;-61
2023/09/07 08:08:45;;;;;;;18.60;14.20;;;;;;;;;;771168;179;918767;-60
2023/09/07 08:11:11;;;;;;;19.20;13.87;;;;;;;;;;776322;180;929376;-67
2023/09/07 08:13:37;;;;;;;18.53;14.37;;;;;;;;;;774382;179;915023;-65
2023/09/07 08:16:03;;;;;;;28.43;17.53;;;;;;;;;;772905;178;915231;-66
2023/09/07 08:18:31;;;;;;;20.17;12.93;;;;;;;;;;778378;180;924226;-66
2023/09/07 08:20:55;;;;;;;23.30;15.03;;;;;;;;;;763061;181;933433;-67
2023/09/07 08:23:21;;;;;;;40.53;33.03;;;;;;;;;;763244;181;918557;-60
2023/09/07 08:25:47;;;;;;;21.07;16.57;;;;;;;;;;760990;181;919264;-61
2023/09/07 08:28:13;;;;;;;27.50;22.90;;;;;;;;;;770430;182;922460;-65
2023/09/07 08:30:38;;;;;;;24.40;17.90;;;;;;;;;;774416;181;817046;-60
2023/09/07 08:33:06;;;;;;;26.47;15.83;;;;;;;;;;773777;179;914742;-60
2023/09/07 08:35:30;;;;;;;15.20;11.93;;;;;;;;;;776808;181;915676;-63
2023/09/07 08:37:58;;;;;;;21.23;17.00;;;;;;;;;;771513;179;912226;-63
2023/09/07 08:40:22;;;;;;;17.43;13.03;;;;;;;;;;772149;178;916983;-65
2023/09/07 08:42:48;;;;;;;19.53;11.70;;;;;;;;;;766771;182;920435;-66
2023/09/07 08:45:13;;;;;;;13.03;10.07;;;;;;;;;;769249;181;919282;-67
2023/09/07 08:47:39;;;;;;;16.50;11.10;;;;;;;;;;773436;180;911934;-66
2023/09/07 08:50:07;;;;;;;15.05;10.52;;;;;;;;;;778707;180;930957;-61
2023/09/07 08:52:32;;;;;;;17.13;11.00;;;;;;;;;;772579;180;917856;-66
2023/09/07 08:54:58;;;;;;;13.37;9.43;;;;;;;;;;765907;180;921156;-62
2023/09/07 08:57:24;;;;;;;13.57;10.07;;;;;;;;;;775897;181;819657;-62
2023/09/07 08:59:50;;;;;;;12.03;9.83;;;;;;;;;;775068;181;903481;-62
2023/09/07 09:02:16;;;;;;;12.57;9.37;;;;;;;;;;774846;180;896161;-62
2023/09/07 09:04:41;;;;;;;14.50;9.90;;;;;;;;;;777211;180;717111;-63
2023/09/07 09:07:07;;;;;;;11.80;9.40;;;;;;;;;;779070;181;726283;-61
2023/09/07 09:09:33;;;;;;;13.40;8.83;;;;;;;;;;765311;181;913821;-68
2023/09/07 09:12:04;;;;;;;18.03;10.70;;;;;;;;;;774471;181;915728;-61
2023/09/07 09:14:30;;;;;;;14.40;8.87;;;;;;;;;;772321;181;918586;-63
2023/09/07 09:16:56;;;;;;;13.95;10.82;;;;;;;;;;778651;180;915666;-67
2023/09/07 09:19:22;;;;;;;16.10;10.00;;;;;;;;;;773394;178;920670;-66
2023/09/07 09:21:49;;;;;;;12.17;9.40;;;;;;;;;;770049;178;912309;-61
2023/09/07 09:24:15;;;;;;;12.53;9.63;;;;;;;;;;779336;180;914988;-63
2023/09/07 09:26:40;;;;;;;9.93;8.73;;;;;;;;;;769370;179;911030;-67
2023/09/07 09:29:05;;;;;;;15.10;10.53;;;;;;;;;;771566;178;865288;-68
2023/09/07 09:31:31;;;;;;;12.07;9.20;;;;;;;;;;776778;177;915182;-66
2023/09/07 09:33:57;;;;;;;10.00;8.87;;;;;;;;;;773602;177;917940;-62
2023/09/07 09:36:23;;;;;;;9.60;8.70;;;;;;;;;;777267;177;919523;-68
2023/09/07 09:38:50;;;;;;;15.80;9.80;;;;;;;;;;770559;180;930179;-65
2023/09/07 09:41:15;;;;;;;12.97;8.83;;;;;;;;;;770141;180;918206;-61
2023/09/07 09:43:41;;;;;;;14.20;9.20;;;;;;;;;;763161;179;919113;-67
2023/09/07 09:46:07;;;;;;;15.57;8.87;;;;;;;;;;760750;182;927850;-66
2023/09/07 09:48:33;;;;;;;12.93;8.77;;;;;;;;;;780058;178;821499;-66
2023/09/07 09:50:59;;;;;;;14.73;9.70;;;;;;;;;;774835;177;837560;-65
2023/09/07 09:53:26;;;;;;;15.33;9.53;;;;;;;;;;773227;177;919513;-63
2023/09/07 09:55:52;;;;;;;12.27;8.27;;;;;;;;;;776004;178;917404;-68
2023/09/07 09:58:17;;;;;;;9.23;8.10;;;;;;;;;;775978;179;919437;-68
2023/09/07 10:00:43;;;;;;;13.27;8.50;;;;;;;;;;776956;180;951246;-62
2023/09/07 10:03:11;;;;;;;11.57;7.72;;;;;;;;;;777136;180;919617;-67
2023/09/07 10:05:35;;;;;;;10.50;8.50;;;;;;;;;;770288;180;919121;-62
2023/09/07 10:08:01;;;;;;;10.80;7.70;;;;;;;;;;766572;181;918080;-67
2023/09/07 10:10:26;;;;;;;16.67;7.73;;;;;;;;;;776263;177;919234;-67
2023/09/07 10:12:53;;;;;;;10.03;7.30;;;;;;;;;;780296;180;917916;-61
2023/09/07 10:15:21;;;;;;;15.73;8.27;;;;;;;;;;770629;180;923969;-67
2023/09/07 10:17:49;;;;;;;12.93;7.90;;;;;;;;;;774527;180;926675;-67
2023/09/07 10:20:12;;;;;;;11.80;7.93;;;;;;;;;;783179;177;648092;-66
2023/09/07 10:22:38;;;;;;;13.53;7.67;;;;;;;;;;773602;180;920733;-62
2023/09/07 10:25:06;;;;;;;11.33;6.20;;;;;;;;;;770907;181;917222;-61
2023/09/07 10:27:36;;;;;;;10.87;7.23;;;;;;;;;;771610;180;918982;-68
2023/09/07 10:30:02;;;;;;;10.93;7.40;;;;;;;;;;773043;180;910943;-67
2023/09/07 10:32:27;;;;;;;10.63;7.80;;;;;;;;;;770000;180;919922;-66
2023/09/07 10:34:53;;;;;;;15.73;7.53;;;;;;;;;;774472;180;919308;-66
2023/09/07 10:37:20;;;;;;;9.40;7.00;;;;;;;;;;779358;178;837873;-69
2023/09/07 10:39:45;;;;;;;10.13;7.30;;;;;;;;;;774284;179;937119;-66
2023/09/07 10:42:17;;;;;;;8.83;6.60;;;;;;;;;;769608;177;919600;-60
2023/09/07 10:44:42;;;;;;;10.80;7.87;;;;;;;;;;769354;181;914121;-66
2023/09/07 10:47:09;;;;;;;10.20;6.90;;;;;;;;;;782151;177;915835;-61
2023/09/07 10:49:34;;;;;;;11.37;7.50;;;;;;;;;;772863;180;920364;-61
2023/09/07 10:52:00;;;;;;;10.03;7.37;;;;;;;;;;774250;177;919396;-60
2023/09/07 10:54:26;;;;;;;11.90;8.07;;;;;;;;;;774937;180;1722250;-61
2023/09/07 10:56:52;;;;;;;9.53;8.30;;;;;;;;;;772978;180;919186;-67
2023/09/07 10:59:18;;;;;;;10.07;8.00;;;;;;;;;;775648;178;915636;-65
2023/09/07 11:01:43;;;;;;;10.73;7.30;;;;;;;;;;780205;178;906034;-61
2023/09/07 11:04:11;;;;;;;11.23;6.90;;;;;;;;;;774300;180;878956;-66
2023/09/07 11:06:35;;;;;;;12.10;7.30;;;;;;;;;;769660;179;924058;-61
2023/09/07 11:09:02;;;;;;;10.30;8.67;;;;;;;;;;772124;179;921065;-66
2023/09/07 11:11:27;;;;;;;8.60;7.40;;;;;;;;;;778684;177;918762;-66
2023/09/07 11:13:53;;;;;;;9.93;6.87;;;;;;;;;;774581;178;920180;-61
2023/09/07 11:16:18;;;;;;;12.37;7.40;;;;;;;;;;770177;179;919105;-61
2023/09/07 11:18:46;;;;;;;9.87;8.13;;;;;;;;;;777732;180;918999;-60
2023/09/07 11:21:11;;;;;;;13.30;7.97;;;;;;;;;;765954;180;918328;-67
2023/09/07 11:23:39;;;;;;;10.38;7.47;;;;;;;;;;774554;180;918927;-66
2023/09/07 11:26:05;;;;;;;14.63;9.67;;;;;;;;;;779004;178;920079;-61
2023/09/07 11:28:30;;;;;;;11.20;9.00;;;;;;;;;;771313;179;815792;-67
2023/09/07 11:30:56;;;;;;;14.00;10.20;;;;;;;;;;761598;182;918950;-65
2023/09/07 11:33:22;;;;;;;11.73;8.90;;;;;;;;;;773899;178;919062;-65
2023/09/07 11:35:48;;;;;;;13.73;10.00;;;;;;;;;;775946;180;910760;-60
2023/09/07 11:38:14;;;;;;;12.37;9.40;;;;;;;;;;773080;179;919478;-60
2023/09/07 11:40:42;;;;;;;14.93;11.17;;;;;;;;;;766121;180;814662;-65
2023/09/07 11:43:05;;;;;;;11.40;9.63;;;;;;;;;;777595;177;613273;-61
2023/09/07 11:45:32;;;;;;;12.93;9.30;;;;;;;;;;775164;180;869018;-59
2023/09/07 11:47:57;;;;;;;12.90;9.63;;;;;;;;;;768780;180;920333;-61
2023/09/07 11:50:23;;;;;;;14.87;8.83;;;;;;;;;;779510;180;820391;-65
2023/09/07 11:52:49;;;;;;;15.97;9.60;;;;;;;;;;773757;179;817941;-66
2023/09/07 11:55:15;;;;;;;12.80;10.57;;;;;;;;;;775706;180;848012;-65
2023/09/07 11:57:41;;;;;;;11.77;9.50;;;;;;;;;;776644;177;633294;-62
2023/09/07 12:00:10;;;;;;;14.77;9.37;;;;;;;;;;773847;181;609883;-67
2023/09/07 12:02:33;;;;;;;21.27;11.03;;;;;;;;;;767294;181;620143;-66
2023/09/07 12:05:00;;;;;;;14.20;9.63;;;;;;;;;;772452;180;919102;-67
2023/09/07 12:07:25;;;;;;;10.50;8.20;;;;;;;;;;774709;181;920708;-60
2023/09/07 12:09:51;;;;;;;10.63;8.20;;;;;;;;;;774137;177;917760;-62
2023/09/07 12:12:16;;;;;;;12.17;8.70;;;;;;;;;;771219;181;917151;-66
2023/09/07 12:14:42;;;;;;;10.70;7.90;;;;;;;;;;773710;177;911580;-67
2023/09/07 12:17:08;;;;;;;10.47;8.13;;;;;;;;;;772674;178;919293;-66
2023/09/07 12:19:34;;;;;;;17.03;9.40;;;;;;;;;;773250;180;919805;-66
2023/09/07 12:22:00;;;;;;;14.67;8.63;;;;;;;;;;777458;180;919701;-66
2023/09/07 12:24:26;;;;;;;11.30;8.90;;;;;;;;;;769662;179;919490;-60
2023/09/07 12:26:52;;;;;;;13.67;8.03;;;;;;;;;;774368;180;815938;-61
2023/09/07 12:29:17;;;;;;;11.60;7.77;;;;;;;;;;775303;180;924687;-61
2023/09/07 12:31:43;;;;;;;14.50;8.63;;;;;;;;;;780173;180;918160;-64
2023/09/07 12:34:09;;;;;;;14.77;10.20;;;;;;;;;;770160;181;817227;-67
2023/09/07 12:36:35;;;;;;;14.07;9.93;;;;;;;;;;772184;179;919144;-61
2023/09/07 12:39:01;;;;;;;13.10;9.23;;;;;;;;;;778468;181;919361;-59
2023/09/07 12:41:28;;;;;;;10.77;9.37;;;;;;;;;;771515;180;920494;-61
2023/09/07 12:43:53;;;;;;;16.33;9.07;;;;;;;;;;774398;180;919197;-65
2023/09/07 12:46:19;;;;;;;11.20;9.50;;;;;;;;;;775243;181;919400;-60
2023/09/07 12:48:45;;;;;;;13.13;7.50;;;;;;;;;;770677;181;919490;-60
2023/09/07 12:51:11;;;;;;;13.37;7.83;;;;;;;;;;773033;180;918700;-61
2023/09/07 12:53:37;;;;;;;12.43;8.47;;;;;;;;;;774289;177;917661;-62
2023/09/07 12:56:03;;;;;;;12.90;8.97;;;;;;;;;;763643;181;917799;-66
2023/09/07 12:58:28;;;;;;;12.47;8.40;;;;;;;;;;768977;181;916581;-67
2023/09/07 13:00:54;;;;;;;9.63;6.90;;;;;;;;;;773152;180;923986;-61
2023/09/07 13:03:20;;;;;;;10.00;6.13;;;;;;;;;;779535;180;919111;-61
2023/09/07 13:05:46;;;;;;;8.73;6.63;;;;;;;;;;776739;178;918807;-62
2023/09/07 13:08:12;;;;;;;13.00;6.93;;;;;;;;;;771874;180;923925;-60
2023/09/07 13:10:38;;;;;;;9.03;5.90;;;;;;;;;;778350;180;920589;-66
2023/09/07 13:13:04;;;;;;;9.87;7.23;;;;;;;;;;767757;181;919414;-68
2023/09/07 13:15:29;;;;;;;10.00;6.83;;;;;;;;;;772584;181;921134;-66
2023/09/07 13:17:55;;;;;;;7.87;6.37;;;;;;;;;;773587;180;919125;-66
2023/09/07 13:20:21;;;;;;;12.00;6.70;;;;;;;;;;774257;180;919193;-61
2023/09/07 13:22:47;;;;;;;10.60;7.10;;;;;;;;;;772749;180;870040;-67
2023/09/07 13:25:13;;;;;;;9.40;7.20;;;;;;;;;;773263;180;940213;-62
2023/09/07 13:27:39;;;;;;;9.67;7.07;;;;;;;;;;773590;180;918288;-60
2023/09/07 13:30:07;;;;;;;11.90;7.50;;;;;;;;;;774185;178;918197;-67
2023/09/07 13:32:32;;;;;;;11.53;7.60;;;;;;;;;;767744;178;918535;-67
2023/09/07 13:34:57;;;;;;;8.50;6.50;;;;;;;;;;769385;182;920407;-61
2023/09/07 13:37:23;;;;;;;11.37;7.63;;;;;;;;;;766509;181;918170;-66
2023/09/07 13:39:49;;;;;;;10.60;7.20;;;;;;;;;;774360;180;915935;-60
2023/09/07 13:42:15;;;;;;;12.80;7.37;;;;;;;;;;780284;181;817213;-66
2023/09/07 13:44:40;;;;;;;9.73;6.87;;;;;;;;;;773002;179;817258;-66
2023/09/07 13:47:08;;;;;;;8.38;6.05;;;;;;;;;;771375;179;908665;-61
2023/09/07 13:49:32;;;;;;;10.50;5.90;;;;;;;;;;769309;181;918794;-61
2023/09/07 13:51:58;;;;;;;7.73;6.47;;;;;;;;;;768660;180;926966;-59
2023/09/07 13:54:24;;;;;;;10.10;6.53;;;;;;;;;;763134;181;921159;-66
2023/09/07 13:56:49;;;;;;;10.33;6.90;;;;;;;;;;768905;180;919409;-64
2023/09/07 13:59:15;;;;;;;8.23;6.43;;;;;;;;;;766713;181;931341;-67
2023/09/07 14:01:41;;;;;;;14.50;7.00;;;;;;;;;;772013;181;917311;-66